createdAt,value
2018-02-15T00:01:08.805Z,3.45
2018-02-15T00:03:41.324Z,3.61
2018-02-15T00:06:13.824Z,3.39
2018-02-15T00:08:46.418Z,3.37
2018-02-15T00:11:18.912Z,3.29
2018-02-15T00:13:51.439Z,3.17
2018-02-15T00:16:23.940Z,3.36
2018-02-15T00:18:56.466Z,3.25
2018-02-15T00:21:28.997Z,3.46
2018-02-15T00:24:01.516Z,3.23
2018-02-15T00:26:34.018Z,3.54
2018-02-15T00:29:06.543Z,3.44
2018-02-15T00:31:39.036Z,3.24
2018-02-15T00:34:11.561Z,3.39
2018-02-15T00:36:44.080Z,3.29
2018-02-15T00:39:16.611Z,3.47
2018-02-15T00:41:49.186Z,3.41
2018-02-15T00:44:21.706Z,3.68
2018-02-15T00:46:54.220Z,3.84
2018-02-15T00:49:26.769Z,3.40
2018-02-15T00:51:59.310Z,3.47
2018-02-15T00:54:31.958Z,3.57
2018-02-15T00:57:04.527Z,3.41
2018-02-15T00:59:37.064Z,3.67
2018-02-15T01:02:09.602Z,3.25
2018-02-15T01:04:42.104Z,3.31
2018-02-15T01:07:14.629Z,3.57
2018-02-15T01:09:47.140Z,3.35
2018-02-15T01:12:19.680Z,3.37
2018-02-15T01:14:52.186Z,3.18
2018-02-15T01:17:24.730Z,3.31
2018-02-15T01:19:57.307Z,3.61
2018-02-15T01:22:29.860Z,3.38
2018-02-15T01:25:02.384Z,3.30
2018-02-15T01:27:34.926Z,3.33
2018-02-15T01:30:07.426Z,3.29
2018-02-15T01:32:39.947Z,3.58
2018-02-15T01:35:12.465Z,3.25
2018-02-15T01:37:45.014Z,3.31
2018-02-15T01:40:17.529Z,3.46
2018-02-15T01:42:50.061Z,3.12
2018-02-15T01:45:22.576Z,3.13
2018-02-15T01:47:55.150Z,3.33
2018-02-15T01:50:27.711Z,3.43
2018-02-15T01:53:00.244Z,3.56
2018-02-15T01:55:33.583Z,3.58
2018-02-15T01:58:06.111Z,3.18
2018-02-15T02:00:38.667Z,3.31
2018-02-15T02:03:11.195Z,3.09
2018-02-15T02:05:43.908Z,3.34
2018-02-15T02:08:16.465Z,3.38
2018-02-15T02:10:48.977Z,3.49
2018-02-15T02:13:21.502Z,3.55
2018-02-15T02:15:54.016Z,3.70
2018-02-15T02:18:26.537Z,3.62
2018-02-15T02:20:59.034Z,3.82
2018-02-15T02:23:31.555Z,3.57
2018-02-15T02:26:04.070Z,3.26
2018-02-15T02:28:36.587Z,3.44
2018-02-15T02:31:09.097Z,3.86
2018-02-15T02:33:41.629Z,3.78
2018-02-15T02:36:14.173Z,3.86
2018-02-15T02:38:46.769Z,3.83
2018-02-15T02:41:19.290Z,3.87
2018-02-15T02:43:51.830Z,3.56
2018-02-15T02:46:24.338Z,3.71
2018-02-15T02:48:56.869Z,3.71
2018-02-15T02:51:29.361Z,3.71
2018-02-15T02:54:01.892Z,3.70
2018-02-15T02:56:34.441Z,3.55
2018-02-15T02:59:06.974Z,3.67
2018-02-15T03:01:39.485Z,3.44
2018-02-15T03:04:12.068Z,3.36
2018-02-15T03:06:44.578Z,3.09
2018-02-15T03:09:17.098Z,3.39
2018-02-15T03:11:49.719Z,3.38
2018-02-15T03:14:22.263Z,3.41
2018-02-15T03:16:54.793Z,3.23
2018-02-15T03:19:27.327Z,3.51
2018-02-15T03:21:59.843Z,3.35
2018-02-15T03:24:32.383Z,3.52
2018-02-15T03:27:04.894Z,3.50
2018-02-15T03:29:37.409Z,3.16
2018-02-15T03:32:09.909Z,3.08
2018-02-15T03:34:42.437Z,3.15
2018-02-15T03:37:14.936Z,3.35
2018-02-15T03:39:47.471Z,3.08
2018-02-15T03:42:19.980Z,3.45
2018-02-15T03:44:52.509Z,3.43
2018-02-15T03:47:25.012Z,3.43
2018-02-15T03:49:57.538Z,3.35
2018-02-15T03:52:30.050Z,3.29
2018-02-15T03:55:02.614Z,3.42
2018-02-15T03:57:35.130Z,3.30
2018-02-15T04:00:07.660Z,3.30
2018-02-15T04:02:40.165Z,3.38
2018-02-15T04:05:12.702Z,3.53
2018-02-15T04:07:45.204Z,3.49
2018-02-15T04:10:17.738Z,3.50
2018-02-15T04:12:50.246Z,3.51
2018-02-15T04:15:22.780Z,3.14
2018-02-15T04:17:55.287Z,3.45
2018-02-15T04:20:27.837Z,3.70
2018-02-15T04:23:00.347Z,3.79
2018-02-15T04:25:32.902Z,3.72
2018-02-15T04:28:05.399Z,3.59
2018-02-15T04:30:37.945Z,3.29
2018-02-15T04:33:10.465Z,3.40
2018-02-15T04:35:42.991Z,3.40
2018-02-15T04:38:15.494Z,3.58
2018-02-15T04:40:48.035Z,3.41
2018-02-15T04:43:20.541Z,3.31
2018-02-15T04:45:53.076Z,3.07
2018-02-15T04:48:25.690Z,3.25
2018-02-15T04:50:58.243Z,3.33
2018-02-15T04:53:30.750Z,3.36
2018-02-15T04:56:03.283Z,3.55
2018-02-15T04:58:35.792Z,3.33
2018-02-15T05:01:08.339Z,3.16
2018-02-15T05:03:40.856Z,3.25
2018-02-15T05:06:13.414Z,3.16
2018-02-15T05:08:45.917Z,2.98
2018-02-15T05:11:18.474Z,2.77
2018-02-15T05:13:50.981Z,2.75
2018-02-15T05:16:23.514Z,3.14
2018-02-15T05:18:56.018Z,2.98
2018-02-15T05:21:28.567Z,2.80
2018-02-15T05:24:01.091Z,2.32
2018-02-15T05:26:33.644Z,2.84
2018-02-15T05:29:06.151Z,2.94
2018-02-15T05:31:38.690Z,3.15
2018-02-15T05:34:11.197Z,2.71
2018-02-15T05:36:43.742Z,2.45
2018-02-15T05:39:16.261Z,2.66
2018-02-15T05:41:48.796Z,3.02
2018-02-15T05:44:21.291Z,2.91
2018-02-15T05:46:53.831Z,2.76
2018-02-15T05:49:26.341Z,2.83
2018-02-15T05:51:58.887Z,2.64
2018-02-15T05:54:31.402Z,2.82
2018-02-15T05:57:03.949Z,2.63
2018-02-15T05:59:36.490Z,2.43
2018-02-15T06:02:09.037Z,2.56
2018-02-15T06:04:41.552Z,2.70
2018-02-15T06:07:14.108Z,2.75
2018-02-15T06:09:46.615Z,2.81
2018-02-15T06:12:19.141Z,2.77
2018-02-15T06:14:51.660Z,2.87
2018-02-15T06:17:24.234Z,2.65
2018-02-15T06:19:56.737Z,2.67
2018-02-15T06:22:29.292Z,2.71
2018-02-15T06:25:01.798Z,2.50
2018-02-15T06:27:34.338Z,2.62
2018-02-15T06:30:06.838Z,2.88
2018-02-15T06:32:39.404Z,2.84
2018-02-15T06:35:11.910Z,2.74
2018-02-15T06:37:45.363Z,2.59
2018-02-15T06:40:17.867Z,2.71
2018-02-15T06:42:50.393Z,2.87
2018-02-15T06:45:22.896Z,2.73
2018-02-15T06:47:55.411Z,2.51
2018-02-15T06:50:27.922Z,2.69
2018-02-15T06:53:00.462Z,2.89
2018-02-15T06:55:32.969Z,2.72
2018-02-15T06:58:05.493Z,2.43
2018-02-15T07:00:38.003Z,2.65
2018-02-15T07:03:10.561Z,2.48
2018-02-15T07:05:43.065Z,2.85
2018-02-15T07:08:15.602Z,2.92
2018-02-15T07:10:48.095Z,2.66
2018-02-15T07:13:20.650Z,2.74
2018-02-15T07:15:53.162Z,2.85
2018-02-15T07:18:25.710Z,3.28
2018-02-15T07:20:58.215Z,2.88
2018-02-15T07:23:30.766Z,2.51
2018-02-15T07:26:03.294Z,3.03
2018-02-15T07:28:35.815Z,3.15
2018-02-15T07:31:08.317Z,2.96
2018-02-15T07:33:40.867Z,3.50
2018-02-15T07:36:13.365Z,3.48
2018-02-15T07:38:45.898Z,3.65
2018-02-15T07:41:18.396Z,3.77
2018-02-15T07:43:50.936Z,3.66
2018-02-15T07:46:23.446Z,3.85
2018-02-15T07:48:55.970Z,3.50
2018-02-15T07:51:28.493Z,3.62
2018-02-15T07:54:01.043Z,3.75
2018-02-15T07:56:33.569Z,3.62
2018-02-15T07:59:06.118Z,3.77
2018-02-15T08:01:38.625Z,3.66
2018-02-15T08:04:11.178Z,3.97
2018-02-15T08:06:43.684Z,3.81
2018-02-15T08:09:16.220Z,4.10
2018-02-15T08:11:48.750Z,4.05
2018-02-15T08:14:21.284Z,4.09
2018-02-15T08:16:53.785Z,4.17
2018-02-15T08:19:26.325Z,4.16
2018-02-15T08:21:58.854Z,4.24
2018-02-15T08:24:31.396Z,4.66
2018-02-15T08:27:03.890Z,3.93
2018-02-15T08:29:36.422Z,3.96
2018-02-15T08:32:08.959Z,4.05
2018-02-15T08:34:41.492Z,4.14
2018-02-15T08:37:13.992Z,4.19
2018-02-15T08:39:46.547Z,3.72
2018-02-15T08:42:19.078Z,4.18
2018-02-15T08:44:51.632Z,4.44
2018-02-15T08:47:24.172Z,4.18
2018-02-15T08:49:56.703Z,4.50
2018-02-15T08:52:29.208Z,4.40
2018-02-15T08:55:01.732Z,3.94
2018-02-15T08:57:34.265Z,4.22
2018-02-15T09:00:06.789Z,4.37
2018-02-15T09:02:39.298Z,4.33
2018-02-15T09:05:11.836Z,4.35
2018-02-15T09:07:44.332Z,4.56
2018-02-15T09:10:16.861Z,4.46
2018-02-15T09:12:49.386Z,4.28
2018-02-15T09:15:21.922Z,4.34
2018-02-15T09:17:54.432Z,4.55
2018-02-15T09:20:26.972Z,4.42
2018-02-15T09:22:59.477Z,4.45
2018-02-15T09:25:32.016Z,4.15
2018-02-15T09:28:04.564Z,3.86
2018-02-15T09:30:37.073Z,4.08
2018-02-15T09:33:09.591Z,3.87
2018-02-15T09:35:42.264Z,3.93
2018-02-15T09:38:14.785Z,3.88
2018-02-15T09:40:47.372Z,4.52
2018-02-15T09:43:20.006Z,4.22
2018-02-15T09:45:52.532Z,4.40
2018-02-15T09:48:25.062Z,4.68
2018-02-15T09:50:57.580Z,4.76
2018-02-15T09:53:30.090Z,4.73
2018-02-15T09:56:02.739Z,4.74
2018-02-15T09:58:35.275Z,4.41
2018-02-15T10:01:07.809Z,4.62
2018-02-15T10:03:40.313Z,4.70
2018-02-15T10:06:12.839Z,4.80
2018-02-15T10:08:45.565Z,5.19
2018-02-15T10:11:18.095Z,4.60
2018-02-15T10:13:50.604Z,4.71
2018-02-15T10:16:23.126Z,4.92
2018-02-15T10:18:55.637Z,5.09
2018-02-15T10:21:28.164Z,5.21
2018-02-15T10:24:00.668Z,5.12
2018-02-15T10:26:33.195Z,5.24
2018-02-15T10:29:05.701Z,5.26
2018-02-15T10:31:38.228Z,5.23
2018-02-15T10:34:10.759Z,5.15
2018-02-15T10:36:43.270Z,5.23
2018-02-15T10:39:15.765Z,5.30
2018-02-15T10:41:48.293Z,5.31
2018-02-15T10:44:20.793Z,5.18
2018-02-15T10:46:53.314Z,5.35
2018-02-15T10:49:25.817Z,5.41
2018-02-15T10:51:58.350Z,5.25
2018-02-15T10:54:30.861Z,5.31
2018-02-15T10:57:03.389Z,5.23
2018-02-15T10:59:35.893Z,5.30
2018-02-15T11:02:14.129Z,5.63
2018-02-15T11:04:52.152Z,5.53
2018-02-15T11:07:24.682Z,5.63
2018-02-15T11:09:57.181Z,5.83
2018-02-15T11:12:29.705Z,5.17
2018-02-15T11:15:03.093Z,5.33
2018-02-15T11:17:35.620Z,5.52
2018-02-15T11:20:08.152Z,5.75
2018-02-15T11:22:40.683Z,5.60
2018-02-15T11:25:13.196Z,5.11
2018-02-15T11:27:45.740Z,5.74
2018-02-15T11:30:18.243Z,5.46
2018-02-15T11:32:50.778Z,5.34
2018-02-15T11:35:23.286Z,5.39
2018-02-15T11:37:55.827Z,5.22
2018-02-15T11:40:28.329Z,5.26
2018-02-15T11:43:00.844Z,5.29
2018-02-15T11:45:33.348Z,4.94
2018-02-15T11:48:05.872Z,4.82
2018-02-15T11:50:38.367Z,4.73
2018-02-15T11:53:10.889Z,5.02
2018-02-15T11:55:43.377Z,4.64
2018-02-15T11:58:15.899Z,4.63
2018-02-15T12:00:48.399Z,4.55
2018-02-15T12:03:20.931Z,4.49
2018-02-15T12:05:53.469Z,4.63
2018-02-15T12:08:25.971Z,4.14
2018-02-15T12:10:58.492Z,4.36
2018-02-15T12:13:31.009Z,4.15
2018-02-15T12:16:03.524Z,4.63
2018-02-15T12:18:36.041Z,4.29
2018-02-15T12:21:08.576Z,4.44
2018-02-15T12:23:41.095Z,4.52
2018-02-15T12:26:13.636Z,4.67
2018-02-15T12:28:46.149Z,4.49
2018-02-15T12:31:18.694Z,4.54
2018-02-15T12:33:51.241Z,4.68
2018-02-15T12:36:23.748Z,4.54
2018-02-15T12:38:56.260Z,4.98
2018-02-15T12:41:28.782Z,4.76
2018-02-15T12:44:01.299Z,4.67
2018-02-15T12:46:33.827Z,4.75
2018-02-15T12:49:06.326Z,4.94
2018-02-15T12:51:38.863Z,4.74
2018-02-15T12:54:11.359Z,4.79
2018-02-15T12:56:43.876Z,4.82
2018-02-15T12:59:16.408Z,4.82
2018-02-15T13:01:48.933Z,4.52
2018-02-15T13:04:21.433Z,4.44
2018-02-15T13:06:53.959Z,4.47
2018-02-15T13:09:26.462Z,4.23
2018-02-15T13:11:58.998Z,4.01
2018-02-15T13:14:31.521Z,4.68
2018-02-15T13:17:04.040Z,4.51
2018-02-15T13:19:48.288Z,4.36
2018-02-15T13:22:32.564Z,4.63
2018-02-15T13:25:05.072Z,4.99
2018-02-15T13:27:49.457Z,4.57
2018-02-15T13:30:21.969Z,4.42
2018-02-15T13:32:54.536Z,4.78
2018-02-15T13:35:27.030Z,4.96
2018-02-15T13:37:59.557Z,5.03
2018-02-15T13:40:32.070Z,4.92
2018-02-15T13:43:04.606Z,5.08
2018-02-15T13:45:37.120Z,5.01
2018-02-15T13:48:09.643Z,4.63
2018-02-15T13:50:42.148Z,4.57
2018-02-15T13:53:14.692Z,4.54
2018-02-15T13:58:26.037Z,4.64
2018-02-15T14:00:58.536Z,4.39
2018-02-15T14:03:31.067Z,4.16
2018-02-15T14:06:03.572Z,4.07
2018-02-15T14:08:36.117Z,4.63
2018-02-15T14:11:08.628Z,4.62
2018-02-15T14:13:41.159Z,4.55
2018-02-15T14:16:13.664Z,4.55
2018-02-15T14:18:46.190Z,4.78
2018-02-15T14:21:18.695Z,4.81
2018-02-15T14:23:51.217Z,5.00
2018-02-15T14:26:23.711Z,4.52
2018-02-15T14:28:56.251Z,4.43
2018-02-15T14:31:28.757Z,4.35
2018-02-15T14:34:01.272Z,4.62
2018-02-15T14:36:33.779Z,4.11
2018-02-15T14:39:06.301Z,4.59
2018-02-15T14:41:38.803Z,4.69
2018-02-15T14:44:11.330Z,4.73
2018-02-15T14:46:43.843Z,4.73
2018-02-15T14:49:16.366Z,4.72
2018-02-15T14:51:48.859Z,4.65
2018-02-15T14:54:21.390Z,4.81
2018-02-15T14:56:53.909Z,4.82
2018-02-15T14:59:26.436Z,4.68
2018-02-15T15:01:58.943Z,4.90
2018-02-15T15:04:31.460Z,4.79
2018-02-15T15:07:03.976Z,4.94
2018-02-15T15:09:36.493Z,4.80
2018-02-15T15:12:08.987Z,4.85
2018-02-15T15:14:41.502Z,4.71
2018-02-15T15:17:14.015Z,4.76
2018-02-15T15:19:46.557Z,4.79
2018-02-15T15:22:19.067Z,4.76
2018-02-15T15:24:51.605Z,4.22
2018-02-15T15:27:24.117Z,4.55
2018-02-15T15:29:56.651Z,4.55
2018-02-15T15:32:29.161Z,4.44
2018-02-15T15:35:01.685Z,4.53
2018-02-15T15:37:34.196Z,4.60
2018-02-15T15:40:07.767Z,4.63
2018-02-15T15:42:40.277Z,4.75
2018-02-15T15:45:12.815Z,4.80
2018-02-15T15:47:45.337Z,4.50
2018-02-15T15:50:17.854Z,4.51
2018-02-15T15:52:50.365Z,4.72
2018-02-15T15:55:22.912Z,4.69
2018-02-15T15:57:55.424Z,4.73
2018-02-15T16:00:27.951Z,4.76
2018-02-15T16:03:00.455Z,4.69
2018-02-15T16:05:32.976Z,4.75
2018-02-15T16:08:05.502Z,4.54
2018-02-15T16:10:38.045Z,4.86
2018-02-15T16:13:10.559Z,4.79
2018-02-15T16:15:43.083Z,4.83
2018-02-15T16:18:17.449Z,4.31
2018-02-15T16:20:51.065Z,4.82
2018-02-15T16:23:23.573Z,5.09
2018-02-15T16:25:56.112Z,4.75
2018-02-15T16:28:28.622Z,4.99
2018-02-15T16:31:01.167Z,5.08
2018-02-15T16:33:33.675Z,4.96
2018-02-15T16:36:06.218Z,5.02
2018-02-15T16:38:39.694Z,5.05
2018-02-15T16:41:12.224Z,5.10
2018-02-15T16:43:44.736Z,5.07
2018-02-15T16:46:17.267Z,4.85
2018-02-15T16:48:49.788Z,5.03
2018-02-15T16:51:22.332Z,5.17
2018-02-15T16:53:54.866Z,4.72
2018-02-15T16:56:27.406Z,4.52
2018-02-15T16:59:01.869Z,4.88
2018-02-15T17:01:34.385Z,4.85
2018-02-15T17:04:06.997Z,4.85
2018-02-15T17:06:39.499Z,5.23
2018-02-15T17:09:12.043Z,5.22
2018-02-15T17:11:44.570Z,5.19
2018-02-15T17:14:17.100Z,4.78
2018-02-15T17:16:49.659Z,5.06
2018-02-15T17:19:22.243Z,5.25
2018-02-15T17:21:54.757Z,5.13
2018-02-15T17:24:27.302Z,4.99
2018-02-15T17:26:59.814Z,4.95
2018-02-15T17:29:32.351Z,4.51
2018-02-15T17:32:04.864Z,4.86
2018-02-15T17:34:37.399Z,5.03
2018-02-15T17:37:09.922Z,4.90
2018-02-15T17:39:42.502Z,5.15
2018-02-15T17:42:15.040Z,5.19
2018-02-15T17:44:47.596Z,5.27
2018-02-15T17:47:20.116Z,5.37
2018-02-15T17:49:52.653Z,5.37
2018-02-15T17:52:25.181Z,5.24
2018-02-15T17:54:57.752Z,5.10
2018-02-15T17:57:31.134Z,5.33
2018-02-15T18:00:03.669Z,5.41
2018-02-15T18:02:36.216Z,5.19
2018-02-15T18:05:08.753Z,5.41
2018-02-15T18:07:41.270Z,5.63
2018-02-15T18:10:13.805Z,5.63
2018-02-15T18:12:46.322Z,5.67
2018-02-15T18:15:18.954Z,5.58
2018-02-15T18:17:51.486Z,5.21
2018-02-15T18:20:24.037Z,5.08
2018-02-15T18:22:56.587Z,5.12
2018-02-15T18:25:29.128Z,5.15
2018-02-15T18:28:01.739Z,5.03
2018-02-15T18:30:34.304Z,5.12
2018-02-15T18:33:06.820Z,5.09
2018-02-15T18:35:39.512Z,5.18
2018-02-15T18:38:12.098Z,5.34
2018-02-15T18:40:44.631Z,5.57
2018-02-15T18:43:17.141Z,5.50
2018-02-15T18:45:49.688Z,5.61
2018-02-15T18:48:22.185Z,5.64
2018-02-15T18:50:54.734Z,5.26
2018-02-15T18:53:27.246Z,5.13
2018-02-15T18:55:59.833Z,5.03
2018-02-15T18:58:32.353Z,5.17
2018-02-15T19:01:04.891Z,4.98
2018-02-15T19:03:37.405Z,5.01
2018-02-15T19:06:09.961Z,5.07
2018-02-15T19:08:42.487Z,5.33
2018-02-15T19:11:15.030Z,5.32
2018-02-15T19:13:47.583Z,5.24
2018-02-15T19:16:20.117Z,5.17
2018-02-15T19:18:52.634Z,5.40
2018-02-15T19:21:25.176Z,5.25
2018-02-15T19:23:57.693Z,5.38
2018-02-15T19:26:30.232Z,5.46
2018-02-15T19:29:03.873Z,5.39
2018-02-15T19:31:36.447Z,5.40
2018-02-15T19:34:08.966Z,5.31
2018-02-15T19:36:41.505Z,5.56
2018-02-15T19:39:14.010Z,5.63
2018-02-15T19:41:46.978Z,5.71
2018-02-15T19:44:19.527Z,5.61
2018-02-15T19:46:52.077Z,5.80
2018-02-15T19:49:24.635Z,5.65
2018-02-15T19:51:57.173Z,5.70
2018-02-15T19:54:29.687Z,5.67
2018-02-15T19:57:02.292Z,5.82
2018-02-15T19:59:34.806Z,5.81
2018-02-15T20:02:07.352Z,5.96
2018-02-15T20:04:39.883Z,5.89
2018-02-15T20:07:12.461Z,5.99
2018-02-15T20:09:44.985Z,6.05
2018-02-15T20:12:18.297Z,6.05
2018-02-15T20:14:50.914Z,5.96
2018-02-15T20:17:23.536Z,6.02
2018-02-15T20:20:01.644Z,6.06
2018-02-15T20:22:34.164Z,6.04
2018-02-15T20:25:06.695Z,5.95
2018-02-15T20:30:55.730Z,6.14
2018-02-15T20:33:28.271Z,6.30
2018-02-15T20:36:00.825Z,6.10
2018-02-15T20:38:38.956Z,6.23
2018-02-15T20:41:11.530Z,6.17
2018-02-15T20:43:49.426Z,6.23
2018-02-15T20:46:21.959Z,6.13
2018-02-15T20:48:54.476Z,6.10
2018-02-15T20:51:32.680Z,6.16
2018-02-15T20:54:10.869Z,6.19
2018-02-15T20:56:43.405Z,6.15
2018-02-15T20:59:15.948Z,6.21
2018-02-15T21:01:48.496Z,6.19
2018-02-15T21:04:21.024Z,6.31
2018-02-15T21:06:53.566Z,6.30
2018-02-15T21:09:26.088Z,6.31
2018-02-15T21:11:58.625Z,6.30
2018-02-15T21:14:31.149Z,6.31
2018-02-15T21:17:03.696Z,6.29
2018-02-15T21:19:36.221Z,6.49
2018-02-15T21:22:08.763Z,6.40
2018-02-15T21:24:41.291Z,6.30
2018-02-15T21:27:13.836Z,6.31
2018-02-15T21:29:46.365Z,6.42
2018-02-15T21:32:18.909Z,6.57
2018-02-15T21:34:51.511Z,6.52
2018-02-15T21:37:24.029Z,6.53
2018-02-15T21:39:56.543Z,6.52
2018-02-15T21:42:29.067Z,6.63
2018-02-15T21:45:01.573Z,6.76
2018-02-15T21:47:34.105Z,6.69
2018-02-15T21:50:06.626Z,6.71
2018-02-15T21:52:39.175Z,6.63
2018-02-15T21:55:11.689Z,6.60
2018-02-15T21:57:44.243Z,6.70
2018-02-15T22:00:16.774Z,6.69
2018-02-15T22:02:49.341Z,6.81
2018-02-15T22:05:21.926Z,6.57
2018-02-15T22:07:54.483Z,6.63
2018-02-15T22:10:27.020Z,6.68
2018-02-15T22:12:59.576Z,6.77
2018-02-15T22:15:32.100Z,6.75
2018-02-15T22:18:04.634Z,6.72
2018-02-15T22:20:37.144Z,6.77
2018-02-15T22:23:09.684Z,6.78
2018-02-15T22:25:42.213Z,6.73
2018-02-15T22:28:14.774Z,6.65
2018-02-15T22:30:47.304Z,6.73
2018-02-15T22:33:19.861Z,6.79
2018-02-15T22:35:52.387Z,6.75
2018-02-15T22:38:24.929Z,6.82
2018-02-15T22:40:57.477Z,6.63
2018-02-15T22:43:30.028Z,6.75
2018-02-15T22:46:02.566Z,6.67
2018-02-15T22:48:35.119Z,6.71
2018-02-15T22:51:07.647Z,6.73
2018-02-15T22:53:40.212Z,6.83
2018-02-15T22:56:12.750Z,6.91
2018-02-15T22:58:45.292Z,6.93
2018-02-15T23:01:17.830Z,6.94
2018-02-15T23:03:50.588Z,6.83
2018-02-15T23:06:23.115Z,6.76
2018-02-15T23:08:55.672Z,6.37
2018-02-15T23:11:28.225Z,6.49
2018-02-15T23:14:00.797Z,6.57
2018-02-15T23:16:33.423Z,6.66
2018-02-15T23:19:05.992Z,6.53
2018-02-15T23:21:38.584Z,6.61
2018-02-15T23:24:11.081Z,6.59
2018-02-15T23:26:43.629Z,6.56
2018-02-15T23:29:16.159Z,6.44
2018-02-15T23:31:48.708Z,6.22
2018-02-15T23:34:21.216Z,6.29
2018-02-15T23:36:53.749Z,6.30
2018-02-15T23:39:26.276Z,6.27
2018-02-15T23:41:58.815Z,6.16
2018-02-15T23:44:31.351Z,6.13
2018-02-15T23:47:03.874Z,6.01
2018-02-15T23:49:36.405Z,6.01
2018-02-15T23:52:08.952Z,5.93
2018-02-15T23:54:41.462Z,5.92
2018-02-15T23:57:14.036Z,5.91
2018-02-15T23:59:46.565Z,6.01
